Time;durP1;ratioP1;P1;durP2;ratioP2;P2;SDS_P1;SDS_P2;PMS_P1;PMS_P2;Temp;Humidity;BMP_temperature;BMP_pressure;BME280_temperature;BME280_humidity;BME280_pressure;Samples;Min_cycle;Max_cycle;Signal;HPM_P1;HPM_P2
2021/01/11 16:06:02;;;;;;;1.70;1.40;;;3.70;98.20;;;;;;6191554;22;20795;-79
2021/01/11 16:08:29;;;;;;;1.63;1.40;;;3.70;98.20;;;;;;6167426;23;20455;-79
2021/01/11 16:10:56;;;;;;;1.60;1.30;;;3.70;98.20;;;;;;6193327;23;20857;-79
2021/01/11 16:13:23;;;;;;;1.60;1.40;;;3.70;98.20;;;;;;6172102;23;20428;-78
2021/01/11 16:15:51;;;;;;;1.60;1.30;;;3.70;98.20;;;;;;6170480;23;20444;-79
2021/01/11 16:18:18;;;;;;;1.60;1.50;;;3.60;98.20;;;;;;6170235;23;20423;-79
2021/01/11 16:20:44;;;;;;;1.60;1.30;;;3.60;98.20;;;;;;6168658;23;20762;-79
2021/01/11 16:23:12;;;;;;;1.60;1.30;;;3.60;98.20;;;;;;6170320;23;20546;-79
2021/01/11 16:25:38;;;;;;;1.60;1.30;;;3.60;98.20;;;;;;6180106;23;20455;-78
2021/01/11 16:28:05;;;;;;;1.67;1.40;;;3.70;98.20;;;;;;6155847;23;20459;-78
2021/01/11 16:30:31;;;;;;;1.67;1.40;;;3.60;98.20;;;;;;6165142;23;20554;-78
2021/01/11 16:33:02;;;;;;;1.60;1.30;;;3.60;98.20;;;;;;6165250;23;20463;-78
2021/01/11 16:35:28;;;;;;;1.63;1.40;;;3.60;98.20;;;;;;6166847;23;20937;-79
2021/01/11 16:37:58;;;;;;;1.70;1.40;;;3.60;98.20;;;;;;6173026;23;20471;-79
2021/01/11 16:40:25;;;;;;;1.70;1.40;;;3.60;98.20;;;;;;6204990;23;20400;-78
2021/01/11 16:42:52;;;;;;;1.60;1.40;;;3.60;98.20;;;;;;6208036;23;20450;-77
2021/01/11 16:45:18;;;;;;;1.63;1.30;;;3.60;98.20;;;;;;6209105;23;20424;-79
2021/01/11 16:47:45;;;;;;;1.70;1.47;;;3.60;98.20;;;;;;6209251;23;20446;-77
2021/01/11 16:50:13;;;;;;;1.60;1.30;;;3.60;98.20;;;;;;6209459;23;20466;-77
2021/01/11 16:52:42;;;;;;;1.63;1.30;;;3.60;98.20;;;;;;6210326;23;20426;-77
2021/01/11 16:55:21;;;;;;;1.60;1.40;;;3.60;98.20;;;;;;6210575;23;20430;-76
2021/01/11 16:57:49;;;;;;;1.67;1.33;;;3.60;98.20;;;;;;6211880;23;20839;-78
2021/01/11 17:00:16;;;;;;;1.63;1.33;;;3.60;98.20;;;;;;6210200;23;20419;-77
2021/01/11 17:02:46;;;;;;;1.67;1.40;;;3.60;98.20;;;;;;6208841;23;21002;-76
2021/01/11 17:05:13;;;;;;;1.60;1.40;;;3.70;98.20;;;;;;6208119;23;20483;-77
2021/01/11 17:07:40;;;;;;;1.60;1.30;;;3.70;98.20;;;;;;6210461;23;20430;-78
2021/01/11 17:10:07;;;;;;;1.60;1.30;;;3.70;98.20;;;;;;6208619;23;20945;-78
2021/01/11 17:12:36;;;;;;;1.63;1.30;;;3.70;98.20;;;;;;6210737;23;20463;-79
2021/01/11 17:15:04;;;;;;;1.60;1.30;;;3.70;98.20;;;;;;6209124;23;20430;-79
2021/01/11 17:17:37;;;;;;;1.60;1.40;;;3.70;98.20;;;;;;6208486;23;20612;-78
2021/01/11 17:20:04;;;;;;;1.70;1.40;;;3.70;98.20;;;;;;6210729;23;20404;-79
2021/01/11 17:22:30;;;;;;;1.60;1.20;;;3.70;98.20;;;;;;6209562;23;20951;-76
2021/01/11 17:24:57;;;;;;;1.60;1.37;;;3.70;98.20;;;;;;6209089;23;20439;-78
2021/01/11 17:27:23;;;;;;;1.60;1.40;;;3.80;98.20;;;;;;6209387;23;20430;-77
2021/01/11 17:29:52;;;;;;;1.60;1.40;;;3.80;98.20;;;;;;6208153;23;20499;-79
2021/01/11 17:32:19;;;;;;;1.60;1.30;;;3.80;98.20;;;;;;6209518;23;20449;-76
2021/01/11 17:34:46;;;;;;;1.63;1.40;;;3.80;98.20;;;;;;6210580;23;20454;-74
2021/01/11 17:37:12;;;;;;;1.60;1.30;;;3.80;98.20;;;;;;6211213;23;20423;-77
2021/01/11 17:39:39;;;;;;;2.40;2.17;;;3.80;98.20;;;;;;6182553;23;20456;-78
2021/01/11 17:42:07;;;;;;;1.67;1.43;;;3.80;98.20;;;;;;6180101;23;20428;-79
2021/01/11 17:44:37;;;;;;;1.70;1.47;;;3.80;98.20;;;;;;6193335;23;20975;-78
2021/01/11 17:47:04;;;;;;;1.70;1.50;;;3.80;98.20;;;;;;6177989;23;20704;-76
2021/01/11 17:49:32;;;;;;;1.60;1.30;;;3.80;98.20;;;;;;6179843;23;20476;-78
2021/01/11 17:51:58;;;;;;;1.60;1.37;;;3.80;98.20;;;;;;6178489;23;20491;-79
2021/01/11 17:54:25;;;;;;;1.60;1.30;;;3.80;98.20;;;;;;6180372;23;20429;-76
2021/01/11 17:56:51;;;;;;;1.70;1.40;;;3.90;98.20;;;;;;6178178;23;20843;-76
2021/01/11 17:59:18;;;;;;;1.60;1.40;;;3.90;98.20;;;;;;6177230;23;20458;-78
2021/01/11 18:01:45;;;;;;;1.63;1.33;;;3.90;98.20;;;;;;6176078;23;21080;-77
2021/01/11 18:04:12;;;;;;;1.70;1.40;;;3.90;98.20;;;;;;6177486;23;20459;-78
2021/01/11 18:06:40;;;;;;;2.20;2.00;;;4.00;98.20;;;;;;6177909;23;20796;-78
2021/01/11 18:09:14;;;;;;;1.67;1.30;;;4.00;98.20;;;;;;6177211;23;20468;-77
2021/01/11 18:11:59;;;;;;;1.70;1.50;;;4.10;98.20;;;;;;6173367;23;20419;-77
2021/01/11 18:14:26;;;;;;;1.70;1.50;;;4.10;98.20;;;;;;6135206;23;20428;-77
2021/01/11 18:16:53;;;;;;;1.70;1.50;;;4.20;98.20;;;;;;6180273;23;20421;-77
2021/01/11 18:19:19;;;;;;;1.67;1.37;;;4.30;98.20;;;;;;6184539;23;20436;-78
2021/01/11 18:21:47;;;;;;;1.60;1.40;;;4.30;98.20;;;;;;6175837;23;20456;-78
2021/01/11 18:24:13;;;;;;;1.83;1.60;;;4.40;98.20;;;;;;6176179;23;20444;-77
2021/01/11 18:26:41;;;;;;;1.67;1.40;;;4.50;98.20;;;;;;6180082;23;20420;-78
2021/01/11 18:29:08;;;;;;;1.63;1.30;;;4.50;98.20;;;;;;6181245;23;20460;-78
2021/01/11 18:31:35;;;;;;;1.70;1.40;;;4.60;98.20;;;;;;6178483;23;20506;-78
2021/01/11 18:34:02;;;;;;;1.70;1.40;;;4.70;98.20;;;;;;6180731;23;20466;-79
2021/01/11 18:36:29;;;;;;;1.60;1.30;;;4.70;98.20;;;;;;6178229;23;20444;-80
2021/01/11 18:38:57;;;;;;;1.70;1.50;;;4.80;98.20;;;;;;6181881;23;20459;-79
2021/01/11 18:41:24;;;;;;;1.67;1.40;;;4.80;98.20;;;;;;6181344;23;20420;-79
2021/01/11 18:43:50;;;;;;;1.60;1.30;;;4.90;98.20;;;;;;6179496;23;20432;-77
2021/01/11 18:46:17;;;;;;;1.63;1.40;;;4.90;98.20;;;;;;6179789;23;20423;-78
2021/01/11 18:48:44;;;;;;;1.63;1.30;;;4.90;98.20;;;;;;6179512;23;20475;-78
2021/01/11 18:51:11;;;;;;;1.60;1.30;;;4.90;98.20;;;;;;6178247;23;20494;-78
2021/01/11 18:53:38;;;;;;;1.60;1.20;;;5.00;98.20;;;;;;6180424;23;20428;-77
2021/01/11 18:56:06;;;;;;;1.63;1.40;;;5.00;98.20;;;;;;6186561;23;20665;-77
2021/01/11 18:58:35;;;;;;;1.67;1.30;;;5.00;98.20;;;;;;6178377;23;20455;-78
2021/01/11 19:01:02;;;;;;;1.60;1.30;;;5.00;98.20;;;;;;6183700;23;20425;-78
2021/01/11 19:03:28;;;;;;;1.63;1.40;;;5.00;98.20;;;;;;6182859;23;20428;-78
2021/01/11 19:05:55;;;;;;;1.67;1.30;;;5.00;98.20;;;;;;6184323;23;20424;-76
2021/01/11 19:08:21;;;;;;;1.63;1.40;;;5.10;98.20;;;;;;6178344;23;20467;-78
2021/01/11 19:10:48;;;;;;;1.60;1.30;;;5.10;98.20;;;;;;6176670;23;21188;-79
2021/01/11 19:13:15;;;;;;;1.67;1.37;;;5.10;98.20;;;;;;6176876;23;20459;-78
2021/01/11 19:15:43;;;;;;;1.60;1.30;;;5.10;98.20;;;;;;6175814;23;20456;-78
2021/01/11 19:18:09;;;;;;;1.67;1.30;;;5.10;98.20;;;;;;6179269;23;20444;-78
2021/01/11 19:20:36;;;;;;;1.67;1.30;;;5.10;98.20;;;;;;6187250;23;20417;-78
2021/01/11 19:23:03;;;;;;;1.60;1.30;;;5.10;98.20;;;;;;6181902;23;20428;-78
2021/01/11 19:25:29;;;;;;;1.70;1.37;;;5.10;98.20;;;;;;6180016;23;20424;-78
2021/01/11 19:27:56;;;;;;;1.70;1.40;;;5.10;98.20;;;;;;6175070;23;20440;-79
2021/01/11 19:30:24;;;;;;;1.70;1.50;;;5.10;98.20;;;;;;6173569;23;20546;-78
2021/01/11 19:32:51;;;;;;;1.67;1.30;;;5.10;98.20;;;;;;6173999;23;20471;-78
2021/01/11 19:35:18;;;;;;;1.60;1.30;;;5.10;98.20;;;;;;6180299;23;20424;-78
2021/01/11 19:37:44;;;;;;;1.70;1.40;;;5.10;98.20;;;;;;6179717;23;20845;-78
2021/01/11 19:40:11;;;;;;;1.60;1.30;;;5.10;98.20;;;;;;6183853;23;20746;-78
2021/01/11 19:42:39;;;;;;;1.63;1.30;;;5.10;98.20;;;;;;6185807;23;20428;-76
2021/01/11 19:45:07;;;;;;;1.70;1.40;;;5.10;98.20;;;;;;6181640;23;20424;-78
2021/01/11 19:47:34;;;;;;;1.60;1.40;;;5.10;98.20;;;;;;6183373;23;20992;-76
2021/01/11 19:50:01;;;;;;;1.70;1.40;;;5.10;98.20;;;;;;6185978;23;20499;-78
2021/01/11 19:52:30;;;;;;;1.70;1.40;;;5.10;98.20;;;;;;6185101;23;20516;-78
2021/01/11 19:54:57;;;;;;;1.70;1.50;;;5.20;98.20;;;;;;6177258;23;20436;-79
2021/01/11 19:57:24;;;;;;;1.60;1.30;;;5.20;98.20;;;;;;6178822;23;20424;-77
2021/01/11 19:59:50;;;;;;;1.60;1.27;;;5.20;98.20;;;;;;6183497;23;20420;-78
2021/01/11 20:02:19;;;;;;;1.60;1.30;;;5.20;98.20;;;;;;6183292;23;20980;-80
2021/01/11 20:04:46;;;;;;;1.70;1.60;;;5.20;98.20;;;;;;6184700;23;20425;-78
2021/01/11 20:07:13;;;;;;;1.70;1.40;;;5.20;98.20;;;;;;6183780;23;20424;-78
2021/01/11 20:09:39;;;;;;;1.60;1.30;;;5.20;98.20;;;;;;6184563;23;20556;-78
2021/01/11 20:12:06;;;;;;;1.67;1.40;;;5.20;98.20;;;;;;6182314;23;20516;-78
2021/01/11 20:14:32;;;;;;;1.60;1.30;;;5.20;98.20;;;;;;6179994;23;20436;-78
2021/01/11 20:16:59;;;;;;;1.70;1.40;;;5.20;98.20;;;;;;6182337;23;20441;-78
2021/01/11 20:19:25;;;;;;;1.60;1.30;;;5.20;98.20;;;;;;6181688;23;20448;-78
2021/01/11 20:21:53;;;;;;;1.63;1.40;;;5.30;98.20;;;;;;6182977;23;20672;-78
2021/01/11 20:24:20;;;;;;;1.70;1.30;;;5.30;98.20;;;;;;6182280;23;20503;-80
2021/01/11 20:26:48;;;;;;;1.63;1.30;;;5.30;98.20;;;;;;6178421;23;20444;-76
2021/01/11 20:29:15;;;;;;;1.63;1.30;;;5.30;98.20;;;;;;6173644;23;20475;-78
2021/01/11 20:31:45;;;;;;;1.70;1.30;;;5.30;98.20;;;;;;6170890;23;21192;-78
2021/01/11 20:34:11;;;;;;;1.63;1.30;;;5.40;98.20;;;;;;6182353;23;20424;-76
2021/01/11 20:36:38;;;;;;;1.63;1.30;;;5.30;98.20;;;;;;6185595;23;21275;-77
2021/01/11 20:39:07;;;;;;;1.63;1.30;;;5.40;98.20;;;;;;6177984;23;20972;-78
2021/01/11 20:41:39;;;;;;;1.63;1.30;;;5.40;98.20;;;;;;6179245;23;21120;-78
2021/01/11 20:44:06;;;;;;;1.60;1.30;;;5.40;98.20;;;;;;6178507;23;20495;-78
2021/01/11 20:46:32;;;;;;;1.63;1.30;;;5.40;98.20;;;;;;6179226;23;20483;-78
2021/01/11 20:48:58;;;;;;;1.63;1.30;;;5.40;98.20;;;;;;6181743;23;20437;-79
2021/01/11 20:51:25;;;;;;;1.60;1.30;;;5.40;98.20;;;;;;6179561;23;20452;-78
2021/01/11 20:53:52;;;;;;;1.70;1.40;;;5.40;98.20;;;;;;6179543;23;21100;-78
2021/01/11 20:56:19;;;;;;;1.60;1.30;;;5.40;98.20;;;;;;6182778;23;20424;-79
2021/01/11 20:58:46;;;;;;;1.70;1.50;;;5.40;98.20;;;;;;6182301;23;20445;-78
2021/01/11 21:01:14;;;;;;;1.60;1.30;;;5.40;98.20;;;;;;6181920;23;20420;-78
2021/01/11 21:03:41;;;;;;;1.60;1.30;;;5.40;98.20;;;;;;6180732;23;20527;-77
2021/01/11 21:06:08;;;;;;;1.60;1.20;;;5.40;98.20;;;;;;6184385;23;20428;-78
2021/01/11 21:08:34;;;;;;;1.60;1.30;;;5.40;98.20;;;;;;6184097;23;20471;-78
2021/01/11 21:11:01;;;;;;;1.60;1.30;;;5.40;98.20;;;;;;6180974;23;20451;-79
2021/01/11 21:13:28;;;;;;;1.60;1.23;;;5.40;98.20;;;;;;6182251;23;20490;-77
2021/01/11 21:15:55;;;;;;;1.60;1.30;;;5.40;98.20;;;;;;6182007;23;20497;-78
2021/01/11 21:18:21;;;;;;;1.70;1.40;;;5.40;98.20;;;;;;6185279;23;20474;-77
2021/01/11 21:20:47;;;;;;;1.60;1.30;;;5.40;98.20;;;;;;6186936;23;20412;-78
2021/01/11 21:23:14;;;;;;;1.70;1.40;;;5.40;98.20;;;;;;6187753;23;20439;-77
2021/01/11 21:25:40;;;;;;;1.63;1.30;;;5.40;98.20;;;;;;6184906;23;20486;-78
2021/01/11 21:28:07;;;;;;;1.67;1.37;;;5.40;98.20;;;;;;6182947;23;20444;-77
2021/01/11 21:30:34;;;;;;;1.60;1.30;;;5.40;98.20;;;;;;6184393;23;20495;-77
2021/01/11 21:33:01;;;;;;;1.63;1.30;;;5.40;98.20;;;;;;6184336;23;20423;-77
2021/01/11 21:35:27;;;;;;;2.03;1.83;;;5.40;98.20;;;;;;6185456;23;20424;-77
2021/01/11 21:37:54;;;;;;;1.70;1.40;;;5.40;98.20;;;;;;6187650;23;20496;-78
2021/01/11 21:40:21;;;;;;;1.67;1.30;;;5.40;98.20;;;;;;6186205;23;20796;-78
2021/01/11 21:42:47;;;;;;;1.70;1.40;;;5.40;98.20;;;;;;6185731;23;20420;-78
2021/01/11 21:45:14;;;;;;;1.70;1.37;;;5.40;98.20;;;;;;6183839;23;20425;-78
2021/01/11 21:47:41;;;;;;;1.70;1.37;;;5.40;98.20;;;;;;6187575;23;20470;-78
2021/01/11 21:50:09;;;;;;;1.70;1.50;;;5.40;98.20;;;;;;6187110;23;20721;-77
2021/01/11 21:52:35;;;;;;;1.63;1.30;;;5.40;98.20;;;;;;6187552;23;20424;-76
2021/01/11 21:55:02;;;;;;;1.60;1.30;;;5.40;98.20;;;;;;6185172;23;20439;-79
2021/01/11 21:57:28;;;;;;;1.70;1.50;;;5.40;98.20;;;;;;6185752;23;20436;-77
2021/01/11 21:59:55;;;;;;;1.70;1.40;;;5.40;98.20;;;;;;6185091;23;20416;-77
2021/01/11 22:02:21;;;;;;;1.60;1.20;;;5.40;98.20;;;;;;6187276;23;20424;-77
2021/01/11 22:04:48;;;;;;;1.60;1.20;;;5.40;98.20;;;;;;6193231;23;20440;-76
2021/01/11 22:07:15;;;;;;;1.60;1.30;;;5.40;98.20;;;;;;6191165;23;20428;-77
2021/01/11 22:09:42;;;;;;;3.57;3.37;;;5.40;98.20;;;;;;6193728;23;20448;-78
2021/01/11 22:12:08;;;;;;;1.60;1.30;;;5.50;98.20;;;;;;6191246;23;20888;-78
2021/01/11 22:14:35;;;;;;;1.70;1.50;;;5.40;98.20;;;;;;6186249;23;20447;-80
2021/01/11 22:17:01;;;;;;;1.60;1.30;;;5.40;98.20;;;;;;6190544;23;20431;-78
2021/01/11 22:19:27;;;;;;;1.60;1.30;;;5.40;98.20;;;;;;6185802;23;20490;-79
2021/01/11 22:21:55;;;;;;;1.60;1.23;;;5.40;98.20;;;;;;6196250;23;20416;-78
2021/01/11 22:24:22;;;;;;;1.70;1.33;;;5.40;98.20;;;;;;6192448;23;20453;-78
2021/01/11 22:26:50;;;;;;;1.70;1.30;;;5.40;98.20;;;;;;6193512;23;20905;-77
2021/01/11 22:29:16;;;;;;;1.60;1.30;;;5.40;98.20;;;;;;6194829;23;20433;-76
2021/01/11 22:31:43;;;;;;;4.10;3.80;;;5.40;98.20;;;;;;6193717;23;20475;-77
2021/01/11 22:34:09;;;;;;;1.60;1.30;;;5.40;98.20;;;;;;6190195;23;20429;-78
2021/01/11 22:36:36;;;;;;;1.63;1.30;;;5.40;98.20;;;;;;6188666;23;20423;-79
2021/01/11 22:39:04;;;;;;;1.60;1.23;;;5.30;98.20;;;;;;6189752;23;20460;-81
2021/01/11 22:41:31;;;;;;;2.47;2.27;;;5.30;98.20;;;;;;6191228;23;20556;-78
2021/01/11 22:43:57;;;;;;;1.97;1.77;;;5.30;98.20;;;;;;6186347;23;20431;-78
2021/01/11 22:46:24;;;;;;;1.70;1.43;;;5.30;98.20;;;;;;6194698;23;20425;-78
2021/01/11 22:48:50;;;;;;;1.60;1.30;;;5.30;98.20;;;;;;6187114;23;20440;-79
2021/01/11 22:51:21;;;;;;;1.60;1.30;;;5.30;98.20;;;;;;6192655;23;20448;-78
2021/01/11 22:53:47;;;;;;;1.60;1.30;;;5.30;98.20;;;;;;6191758;23;20409;-77
2021/01/11 22:56:19;;;;;;;1.80;1.60;;;5.30;98.20;;;;;;6191602;23;20841;-78
2021/01/11 22:58:49;;;;;;;1.70;1.40;;;5.30;98.20;;;;;;6188501;23;20452;-77
2021/01/11 23:01:15;;;;;;;2.27;2.07;;;5.30;98.20;;;;;;6201148;23;20404;-79
2021/01/11 23:03:42;;;;;;;1.60;1.20;;;5.30;98.20;;;;;;6194091;23;20421;-79
2021/01/11 23:06:09;;;;;;;1.70;1.40;;;5.30;98.20;;;;;;6189114;23;20424;-78
2021/01/11 23:08:36;;;;;;;1.70;1.43;;;5.40;98.20;;;;;;6195406;23;20579;-78
2021/01/11 23:11:02;;;;;;;1.60;1.30;;;5.40;98.20;;;;;;6194898;23;20455;-77
2021/01/11 23:13:30;;;;;;;1.70;1.40;;;5.30;98.20;;;;;;6193316;23;20421;-76
2021/01/11 23:15:56;;;;;;;1.70;1.40;;;5.40;98.20;;;;;;6196820;23;20416;-78
2021/01/11 23:18:23;;;;;;;1.70;1.40;;;5.40;98.20;;;;;;6196061;23;20437;-75
2021/01/11 23:20:49;;;;;;;1.70;1.30;;;5.40;98.20;;;;;;6194471;23;20415;-78
2021/01/11 23:23:17;;;;;;;1.60;1.30;;;5.40;98.20;;;;;;6195801;23;20428;-78
2021/01/11 23:25:45;;;;;;;3.20;1.80;;;5.30;98.20;;;;;;6198472;23;20426;-77
2021/01/11 23:28:15;;;;;;;1.70;1.40;;;5.30;98.20;;;;;;6195640;23;20444;-78
2021/01/11 23:30:46;;;;;;;1.60;1.30;;;5.30;98.20;;;;;;6194339;23;20441;-77
2021/01/11 23:33:13;;;;;;;1.60;1.30;;;5.40;98.20;;;;;;6194798;23;20409;-80
2021/01/11 23:35:39;;;;;;;1.70;1.40;;;5.30;98.20;;;;;;6193556;23;20417;-77
2021/01/11 23:38:06;;;;;;;1.60;1.30;;;5.40;98.20;;;;;;6193898;23;20718;-78
2021/01/11 23:40:32;;;;;;;1.60;1.30;;;5.40;98.20;;;;;;6189840;23;20560;-77
2021/01/11 23:43:00;;;;;;;1.70;1.40;;;5.40;98.20;;;;;;6191017;23;20451;-77
2021/01/11 23:45:27;;;;;;;1.63;1.30;;;5.40;98.20;;;;;;6196202;23;20475;-78
2021/01/11 23:47:54;;;;;;;1.60;1.30;;;5.40;98.20;;;;;;6195564;23;20496;-78
2021/01/11 23:50:24;;;;;;;1.70;1.40;;;5.40;98.20;;;;;;6195448;23;20602;-77
2021/01/11 23:52:50;;;;;;;1.60;1.30;;;5.40;98.20;;;;;;6194349;23;20999;-78
2021/01/11 23:55:18;;;;;;;1.70;1.37;;;5.40;98.20;;;;;;6188786;23;20435;-78
2021/01/11 23:57:45;;;;;;;1.63;1.30;;;5.40;98.20;;;;;;6189551;23;20443;-78
